Time;durP1;ratioP1;P1;durP2;ratioP2;P2;SDS_P1;SDS_P2;PMS_P1;PMS_P2;Temp;Humidity;BMP_temperature;BMP_pressure;BME280_temperature;BME280_humidity;BME280_pressure;Samples;Min_cycle;Max_cycle;Signal;HPM_P1;HPM_P2
2021/06/07 00:01:24;;;;;;;;;;;15.60;85.70;;;;;;5072546;28;19962;-81
2021/06/07 00:03:50;;;;;;;;;;;15.50;86.50;;;;;;5073784;28;19919;-81
2021/06/07 00:06:15;;;;;;;;;;;15.40;86.80;;;;;;5075653;28;19909;-81
2021/06/07 00:08:41;;;;;;;;;;;15.40;87.20;;;;;;5071062;28;19917;-81
2021/06/07 00:11:06;;;;;;;;;;;15.40;87.30;;;;;;5072428;28;19958;-81
2021/06/07 00:13:33;;;;;;;;;;;15.40;87.60;;;;;;5070806;28;19909;-81
2021/06/07 00:15:59;;;;;;;;;;;15.40;87.90;;;;;;5071007;28;19913;-81
2021/06/07 00:18:25;;;;;;;;;;;15.30;88.20;;;;;;5076387;28;20328;-81
2021/06/07 00:20:54;;;;;;;;;;;15.30;88.60;;;;;;5072195;28;20364;-81
2021/06/07 00:23:19;;;;;;;;;;;15.30;88.90;;;;;;5072586;28;19956;-81
2021/06/07 00:25:46;;;;;;;;;;;15.20;89.30;;;;;;5073562;28;19946;-81
2021/06/07 00:28:12;;;;;;;;;;;15.10;89.70;;;;;;5104596;28;20281;-81
2021/06/07 00:30:37;;;;;;;;;;;15.10;89.90;;;;;;5070969;28;20372;-81
2021/06/07 00:33:03;;;;;;;;;;;15.10;90.00;;;;;;5070621;28;19908;-81
2021/06/07 00:35:29;;;;;;;;;;;15.10;90.10;;;;;;5104553;28;19909;-81
2021/06/07 00:37:55;;;;;;;;;;;15.10;90.10;;;;;;5074917;28;19915;-81
2021/06/07 00:40:23;;;;;;;;;;;15.10;90.10;;;;;;5070864;28;19908;-81
2021/06/07 00:42:48;;;;;;;;;;;15.10;90.10;;;;;;5072003;28;19925;-81
2021/06/07 00:45:16;;;;;;;;;;;15.00;90.30;;;;;;5071964;28;19916;-80
2021/06/07 00:47:42;;;;;;;;;;;15.00;90.40;;;;;;5071845;28;19944;-81
2021/06/07 00:50:11;;;;;;;;;;;14.90;90.50;;;;;;5073065;28;19959;-81
2021/06/07 00:52:37;;;;;;;;;;;14.90;90.50;;;;;;5077008;28;20018;-81
2021/06/07 00:55:06;;;;;;;;;;;14.90;90.60;;;;;;5074148;28;19916;-81
2021/06/07 00:57:32;;;;;;;;;;;14.80;90.60;;;;;;5075218;28;20387;-81
2021/06/07 00:59:57;;;;;;;;;;;14.90;90.60;;;;;;5074320;28;19909;-80
2021/06/07 01:02:22;;;;;;;;;;;14.90;90.60;;;;;;5109282;28;19919;-81
2021/06/07 01:04:48;;;;;;;;;;;14.80;90.60;;;;;;5078147;28;19978;-82
2021/06/07 01:07:13;;;;;;;;;;;14.80;90.70;;;;;;5075676;28;19908;-81
2021/06/07 01:09:39;;;;;;;;;;;14.70;90.70;;;;;;5074736;28;19908;-81
2021/06/07 01:12:05;;;;;;;;;;;14.70;90.80;;;;;;5074435;28;20257;-81
2021/06/07 01:14:30;;;;;;;;;;;14.70;90.80;;;;;;5084988;28;20003;-81
2021/06/07 01:16:56;;;;;;;;;;;14.70;90.80;;;;;;5075347;28;20383;-81
2021/06/07 01:19:22;;;;;;;;;;;14.70;90.80;;;;;;5079729;28;19916;-80
2021/06/07 01:21:47;;;;;;;;;;;14.70;90.90;;;;;;5104838;28;19915;-81
2021/06/07 01:24:13;;;;;;;;;;;14.60;90.90;;;;;;5075339;28;19916;-81
2021/06/07 01:26:38;;;;;;;;;;;14.60;90.90;;;;;;5075610;28;19947;-81
2021/06/07 01:29:04;;;;;;;;;;;14.70;90.90;;;;;;5074939;28;19954;-81
2021/06/07 01:31:29;;;;;;;;;;;14.70;91.00;;;;;;5107525;28;20003;-81
2021/06/07 01:33:55;;;;;;;;;;;14.60;90.90;;;;;;5076448;28;19908;-82
2021/06/07 01:36:21;;;;;;;;;;;14.60;90.90;;;;;;5074428;28;20506;-81
2021/06/07 01:38:47;;;;;;;;;;;14.50;91.00;;;;;;5074802;28;19909;-81
2021/06/07 01:41:14;;;;;;;;;;;14.50;91.10;;;;;;5073527;28;19954;-80
2021/06/07 01:43:40;;;;;;;;;;;14.50;91.10;;;;;;5074321;28;19927;-81
2021/06/07 01:46:06;;;;;;;;;;;14.40;91.20;;;;;;5073347;28;19932;-80
2021/06/07 01:48:31;;;;;;;;;;;14.40;91.30;;;;;;5073282;28;20375;-81
2021/06/07 01:50:58;;;;;;;;;;;14.30;91.30;;;;;;5073323;28;19909;-80
2021/06/07 01:53:25;;;;;;;;;;;14.30;91.20;;;;;;5079840;28;20275;-81
2021/06/07 01:55:53;;;;;;;;;;;14.30;91.20;;;;;;5076917;28;19938;-81
2021/06/07 01:58:19;;;;;;;;;;;14.30;91.20;;;;;;5073253;28;19913;-81
2021/06/07 02:00:46;;;;;;;;;;;14.30;91.30;;;;;;5079759;28;20311;-80
2021/06/07 02:03:13;;;;;;;;;;;14.20;91.30;;;;;;5079796;28;19916;-80
2021/06/07 02:05:41;;;;;;;;;;;14.20;91.40;;;;;;5078405;28;19908;-81
2021/06/07 02:08:08;;;;;;;;;;;14.20;91.40;;;;;;5072658;28;19909;-80
2021/06/07 02:10:36;;;;;;;;;;;14.20;91.40;;;;;;5078443;28;19908;-80
2021/06/07 02:13:02;;;;;;;;;;;14.20;91.40;;;;;;5074160;28;19915;-80
2021/06/07 02:15:27;;;;;;;;;;;14.10;91.50;;;;;;5071300;28;20308;-81
2021/06/07 02:17:52;;;;;;;;;;;14.10;91.50;;;;;;5074047;28;19908;-81
2021/06/07 02:20:22;;;;;;;;;;;14.10;91.40;;;;;;5077612;28;20376;-81
2021/06/07 02:22:48;;;;;;;;;;;14.10;91.50;;;;;;5071729;28;20058;-81
2021/06/07 02:25:16;;;;;;;;;;;14.10;91.50;;;;;;5074361;28;19908;-81
2021/06/07 02:27:42;;;;;;;;;;;14.10;91.50;;;;;;5072626;28;19928;-81
2021/06/07 02:30:09;;;;;;;;;;;14.10;91.50;;;;;;5075279;28;19908;-81
2021/06/07 02:32:35;;;;;;;;;;;14.10;91.40;;;;;;5073683;28;19995;-81
2021/06/07 02:35:00;;;;;;;;;;;14.00;91.50;;;;;;5072301;28;20000;-81
2021/06/07 02:37:26;;;;;;;;;;;14.00;91.60;;;;;;5071839;28;19943;-81
2021/06/07 02:39:51;;;;;;;;;;;14.00;91.50;;;;;;5072435;28;19913;-81
2021/06/07 02:42:17;;;;;;;;;;;14.10;91.80;;;;;;5073264;28;19921;-81
2021/06/07 02:44:43;;;;;;;;;;;14.00;91.40;;;;;;5072110;28;19923;-81
2021/06/07 02:47:08;;;;;;;;;;;14.00;91.50;;;;;;5072128;28;20074;-81
2021/06/07 02:49:34;;;;;;;;;;;14.00;91.50;;;;;;5073322;28;19909;-81
2021/06/07 02:51:59;;;;;;;;;;;14.00;91.40;;;;;;5106015;28;20383;-80
2021/06/07 02:54:25;;;;;;;;;;;13.90;91.50;;;;;;5075895;28;20352;-81
2021/06/07 02:56:50;;;;;;;;;;;13.90;91.50;;;;;;5072053;28;19908;-81
2021/06/07 02:59:16;;;;;;;;;;;13.90;91.50;;;;;;5073244;28;20393;-81
2021/06/07 03:01:41;;;;;;;;;;;13.90;91.50;;;;;;5074720;28;20296;-81
2021/06/07 03:04:07;;;;;;;;;;;13.80;91.60;;;;;;5071984;28;19936;-81
2021/06/07 03:06:32;;;;;;;;;;;13.80;91.60;;;;;;5075223;28;19969;-81
2021/06/07 03:08:58;;;;;;;;;;;13.80;91.70;;;;;;5079006;28;19999;-81
2021/06/07 03:11:24;;;;;;;;;;;13.70;91.80;;;;;;5071811;28;19912;-81
2021/06/07 03:13:49;;;;;;;;;;;13.70;91.90;;;;;;5073071;28;19909;-81
2021/06/07 03:16:15;;;;;;;;;;;13.70;91.90;;;;;;5073501;28;19915;-81
2021/06/07 03:18:42;;;;;;;;;;;13.60;92.00;;;;;;5073236;28;19908;-81
2021/06/07 03:21:07;;;;;;;;;;;13.70;92.00;;;;;;5078792;28;19915;-81
2021/06/07 03:23:34;;;;;;;;;;;13.70;92.00;;;;;;5072032;28;19913;-81
2021/06/07 03:26:00;;;;;;;;;;;13.60;92.00;;;;;;5072149;28;19909;-81
2021/06/07 03:28:26;;;;;;;;;;;13.60;92.10;;;;;;5105762;28;20249;-81
2021/06/07 03:30:52;;;;;;;;;;;13.60;92.10;;;;;;5076640;28;20364;-82
2021/06/07 03:33:19;;;;;;;;;;;13.60;92.10;;;;;;5096842;28;19991;-81
2021/06/07 03:35:45;;;;;;;;;;;13.60;92.10;;;;;;5098103;28;19896;-82
2021/06/07 03:38:11;;;;;;;;;;;13.60;92.10;;;;;;5099207;28;19903;-80
2021/06/07 03:40:39;;;;;;;;;;;13.60;92.10;;;;;;5102671;28;19917;-81
2021/06/07 03:43:04;;;;;;;;;;;13.60;92.20;;;;;;5090800;28;19974;-81
2021/06/07 03:45:30;;;;;;;;;;;13.60;92.20;;;;;;5072853;28;19908;-81
2021/06/07 03:47:56;;;;;;;;;;;13.60;92.20;;;;;;5071500;28;19908;-81
2021/06/07 03:50:23;;;;;;;;;;;13.60;92.20;;;;;;5073804;28;20335;-81
2021/06/07 03:52:48;;;;;;;;;;;13.60;92.30;;;;;;5070141;28;19912;-82
2021/06/07 03:55:15;;;;;;;;;;;13.60;92.30;;;;;;5105439;28;19909;-81
2021/06/07 03:57:40;;;;;;;;;;;13.50;92.40;;;;;;5079763;28;19989;-81
2021/06/07 04:00:07;;;;;;;;;;;13.50;92.40;;;;;;5074284;28;19913;-81
2021/06/07 04:02:33;;;;;;;;;;;13.50;92.40;;;;;;5072202;28;19921;-81
2021/06/07 04:04:58;;;;;;;;;;;13.50;92.50;;;;;;5105015;28;19908;-80
2021/06/07 04:07:24;;;;;;;;;;;13.50;92.50;;;;;;5076487;28;19908;-81
2021/06/07 04:09:49;;;;;;;;;;;13.50;92.50;;;;;;5072373;28;19914;-81
2021/06/07 04:12:15;;;;;;;;;;;13.50;92.80;;;;;;5071303;28;19909;-81
2021/06/07 04:14:40;;;;;;;;;;;13.50;92.70;;;;;;5104906;28;19916;-81
2021/06/07 04:17:06;;;;;;;;;;;13.50;92.80;;;;;;5070911;28;19909;-81
2021/06/07 04:19:31;;;;;;;;;;;13.50;92.80;;;;;;5072194;28;19912;-81
2021/06/07 04:21:57;;;;;;;;;;;13.60;92.70;;;;;;5070950;28;19909;-81
2021/06/07 04:24:22;;;;;;;;;;;13.60;92.80;;;;;;5073651;28;19921;-81
2021/06/07 04:26:48;;;;;;;;;;;13.60;92.80;;;;;;5076169;28;19912;-81
2021/06/07 04:29:13;;;;;;;;;;;13.60;92.80;;;;;;5077024;28;19934;-81
2021/06/07 04:31:39;;;;;;;;;;;13.60;92.90;;;;;;5075825;28;19912;-81
2021/06/07 04:34:04;;;;;;;;;;;13.60;92.90;;;;;;5079432;28;19915;-81
2021/06/07 04:36:30;;;;;;;;;;;13.70;92.90;;;;;;5108257;28;20368;-81
2021/06/07 04:38:55;;;;;;;;;;;13.70;92.90;;;;;;5074572;28;19963;-81
2021/06/07 04:41:20;;;;;;;;;;;13.60;92.90;;;;;;5076198;28;19947;-81
2021/06/07 04:43:46;;;;;;;;;;;13.60;93.00;;;;;;5074253;28;19921;-81
2021/06/07 04:46:11;;;;;;;;;;;13.60;93.10;;;;;;5074752;28;20334;-81
2021/06/07 04:48:37;;;;;;;;;;;13.60;93.20;;;;;;5074210;28;19908;-81
2021/06/07 04:51:03;;;;;;;;;;;13.70;93.10;;;;;;5074450;28;20318;-81
2021/06/07 04:53:28;;;;;;;;;;;13.80;93.10;;;;;;5075514;28;19948;-81
2021/06/07 04:55:54;;;;;;;;;;;13.80;93.10;;;;;;5075487;28;20355;-81
2021/06/07 04:58:22;;;;;;;;;;;13.80;93.10;;;;;;5074285;28;19912;-81
2021/06/07 05:00:51;;;;;;;;;;;13.80;93.10;;;;;;5075326;28;19952;-81
2021/06/07 05:03:17;;;;;;;;;;;13.90;93.20;;;;;;5074053;28;20003;-80
2021/06/07 05:05:42;;;;;;;;;;;13.90;93.10;;;;;;5075139;28;20034;-80
2021/06/07 05:08:08;;;;;;;;;;;13.90;93.20;;;;;;5077920;28;19909;-81
2021/06/07 05:10:34;;;;;;;;;;;13.90;93.20;;;;;;5074133;28;19908;-81
2021/06/07 05:12:59;;;;;;;;;;;13.90;93.20;;;;;;5074008;28;19957;-81
2021/06/07 05:15:25;;;;;;;;;;;14.00;93.20;;;;;;5075270;28;19908;-82
2021/06/07 05:17:50;;;;;;;;;;;13.90;93.30;;;;;;5074243;28;19909;-82
2021/06/07 05:20:18;;;;;;;;;;;13.90;93.30;;;;;;5074335;28;20378;-82
2021/06/07 05:22:43;;;;;;;;;;;13.90;93.30;;;;;;5073242;28;19982;-81
2021/06/07 05:25:09;;;;;;;;;;;13.90;93.30;;;;;;5107830;28;19997;-82
2021/06/07 05:27:35;;;;;;;;;;;14.00;93.40;;;;;;5073868;28;19997;-82
2021/06/07 05:30:02;;;;;;;;;;;14.00;93.40;;;;;;5108314;28;19912;-82
2021/06/07 05:32:28;;;;;;;;;;;14.10;93.40;;;;;;5073922;28;19909;-82
2021/06/07 05:34:53;;;;;;;;;;;14.10;93.40;;;;;;5074789;28;19909;-82
2021/06/07 05:37:19;;;;;;;;;;;14.10;93.40;;;;;;5106926;28;20288;-81
2021/06/07 05:39:44;;;;;;;;;;;14.10;93.30;;;;;;5074463;28;19956;-82
2021/06/07 05:42:10;;;;;;;;;;;14.20;93.30;;;;;;5107035;28;19917;-82
2021/06/07 05:44:35;;;;;;;;;;;14.20;93.30;;;;;;5074466;28;20497;-82
2021/06/07 05:47:01;;;;;;;;;;;14.20;93.20;;;;;;5106965;28;19915;-82
2021/06/07 05:49:26;;;;;;;;;;;14.20;93.20;;;;;;5073130;28;19962;-82
2021/06/07 05:51:52;;;;;;;;;;;14.20;93.20;;;;;;5073254;28;19913;-81
2021/06/07 05:54:17;;;;;;;;;;;14.30;93.20;;;;;;5074488;28;20011;-82
2021/06/07 05:56:43;;;;;;;;;;;14.30;93.00;;;;;;5073088;28;20010;-82
2021/06/07 05:59:08;;;;;;;;;;;14.40;92.70;;;;;;5075675;28;19916;-82
2021/06/07 06:01:34;;;;;;;;;;;14.40;92.70;;;;;;5074382;28;20403;-81
2021/06/07 06:04:00;;;;;;;;;;;14.40;92.60;;;;;;5089909;28;19916;-82
2021/06/07 06:06:25;;;;;;;;;;;14.40;92.50;;;;;;5079470;28;19913;-83
2021/06/07 06:08:51;;;;;;;;;;;14.50;92.50;;;;;;5081757;28;19958;-81
2021/06/07 06:11:17;;;;;;;;;;;14.50;92.30;;;;;;5074951;28;19915;-82
2021/06/07 06:13:43;;;;;;;;;;;14.60;92.30;;;;;;5074415;28;19908;-80
2021/06/07 06:16:08;;;;;;;;;;;14.60;92.30;;;;;;4901845;22;19925;-76
2021/06/07 06:18:37;;;;;;;;;;;14.70;92.30;;;;;;5074037;28;19912;-76
2021/06/07 06:21:02;;;;;;;;;;;14.70;92.40;;;;;;5073324;28;19916;-76
2021/06/07 06:23:28;;;;;;;;;;;14.70;92.50;;;;;;5074663;28;20257;-76
2021/06/07 06:25:53;;;;;;;;;;;14.80;92.50;;;;;;5073965;28;19909;-76
2021/06/07 06:28:19;;;;;;;;;;;14.80;92.50;;;;;;5069745;28;20387;-76
2021/06/07 06:30:44;;;;;;;;;;;14.90;92.40;;;;;;5054364;28;20422;-75
2021/06/07 06:33:09;;;;;;;;;;;14.90;92.40;;;;;;5054444;28;20003;-76
2021/06/07 06:35:35;;;;;;;;;;;14.90;92.30;;;;;;5069750;28;19909;-75
2021/06/07 06:38:00;;;;;;;;;;;15.00;92.30;;;;;;5069671;28;19909;-76
2021/06/07 06:40:28;;;;;;;;;;;15.00;92.10;;;;;;5069471;28;19909;-75
2021/06/07 06:42:54;;;;;;;;;;;15.00;92.00;;;;;;5052977;28;19920;-76
2021/06/07 06:45:20;;;;;;;;;;;15.10;91.80;;;;;;5085748;28;19908;-76
2021/06/07 06:47:46;;;;;;;;;;;15.10;91.70;;;;;;5070600;28;19920;-75
2021/06/07 06:50:12;;;;;;;;;;;15.10;91.50;;;;;;5079824;28;19912;-77
2021/06/07 06:52:38;;;;;;;;;;;15.20;91.30;;;;;;5064136;28;19916;-77
2021/06/07 06:55:04;;;;;;;;;;;15.20;91.20;;;;;;5078133;28;19909;-76
2021/06/07 06:57:29;;;;;;;;;;;15.20;91.20;;;;;;5089148;28;19909;-77
2021/06/07 06:59:55;;;;;;;;;;;15.20;91.00;;;;;;5085767;28;19913;-78
2021/06/07 07:02:21;;;;;;;;;;;15.30;91.00;;;;;;5068761;28;19912;-76
2021/06/07 07:04:46;;;;;;;;;;;15.30;91.00;;;;;;5067652;28;20391;-76
2021/06/07 07:07:11;;;;;;;;;;;15.40;91.10;;;;;;5061434;28;19962;-76
2021/06/07 07:09:38;;;;;;;;;;;15.40;91.00;;;;;;5069050;28;19909;-75
2021/06/07 07:12:04;;;;;;;;;;;15.50;90.90;;;;;;5071575;28;19915;-75
2021/06/07 07:14:30;;;;;;;;;;;15.50;90.90;;;;;;5073272;28;20371;-75
2021/06/07 07:16:56;;;;;;;;;;;15.60;90.60;;;;;;5062649;28;20383;-75
2021/06/07 07:19:21;;;;;;;;;;;15.70;90.80;;;;;;5068957;28;20407;-75
2021/06/07 07:21:47;;;;;;;;;;;15.70;90.20;;;;;;5053582;28;20379;-75
2021/06/07 07:24:12;;;;;;;;;;;15.80;90.20;;;;;;5053286;28;19923;-75
2021/06/07 07:26:38;;;;;;;;;;;15.90;90.10;;;;;;5053314;28;19999;-75
2021/06/07 07:29:03;;;;;;;;;;;15.90;90.30;;;;;;5053314;28;20007;-76
2021/06/07 07:31:29;;;;;;;;;;;16.00;90.20;;;;;;5053412;28;20055;-76
2021/06/07 07:33:54;;;;;;;;;;;16.10;88.00;;;;;;5052169;28;19963;-76
2021/06/07 07:36:19;;;;;;;;;;;16.20;87.90;;;;;;5068670;28;20003;-76
2021/06/07 07:38:45;;;;;;;;;;;16.20;86.40;;;;;;5051977;28;19916;-76
2021/06/07 07:41:11;;;;;;;;;;;16.30;86.60;;;;;;5051923;28;19999;-76
2021/06/07 07:43:37;;;;;;;;;;;16.40;86.90;;;;;;5051748;28;19913;-76
2021/06/07 07:46:03;;;;;;;;;;;16.50;87.20;;;;;;5051848;28;19913;-76
2021/06/07 07:48:28;;;;;;;;;;;16.50;85.40;;;;;;5051922;28;19958;-77
2021/06/07 07:50:54;;;;;;;;;;;16.60;85.70;;;;;;5068663;28;19916;-76
2021/06/07 07:53:20;;;;;;;;;;;16.70;85.20;;;;;;5053186;28;19956;-77
2021/06/07 07:55:46;;;;;;;;;;;16.80;85.40;;;;;;5053082;28;19995;-77
2021/06/07 07:58:12;;;;;;;;;;;16.80;84.50;;;;;;5068216;28;20351;-76
2021/06/07 08:00:39;;;;;;;;;;;16.90;84.00;;;;;;5056710;28;19935;-77
2021/06/07 08:03:05;;;;;;;;;;;17.00;83.70;;;;;;5055901;28;20020;-75
2021/06/07 08:05:31;;;;;;;;;;;17.10;83.70;;;;;;5055879;28;19975;-76
2021/06/07 08:07:57;;;;;;;;;;;17.20;83.90;;;;;;5055879;28;20349;-76
2021/06/07 08:10:22;;;;;;;;;;;17.20;83.70;;;;;;5072519;28;19913;-76
2021/06/07 08:12:48;;;;;;;;;;;17.30;84.20;;;;;;5072221;28;19912;-76
2021/06/07 08:15:14;;;;;;;;;;;17.40;83.60;;;;;;5055715;28;19924;-76
2021/06/07 08:17:39;;;;;;;;;;;17.50;81.80;;;;;;5072459;28;19915;-75
2021/06/07 08:20:06;;;;;;;;;;;17.60;82.50;;;;;;5069993;28;20339;-77
2021/06/07 08:22:31;;;;;;;;;;;17.70;82.60;;;;;;5064975;28;19916;-78
2021/06/07 08:24:57;;;;;;;;;;;17.80;81.00;;;;;;5057127;28;19909;-77
2021/06/07 08:27:22;;;;;;;;;;;17.80;79.30;;;;;;5055612;28;20315;-77
2021/06/07 08:29:49;;;;;;;;;;;18.00;78.80;;;;;;5055713;28;19913;-77
2021/06/07 08:32:15;;;;;;;;;;;18.00;77.00;;;;;;5072247;28;19912;-77
2021/06/07 08:34:41;;;;;;;;;;;18.10;76.10;;;;;;5072370;28;19962;-78
2021/06/07 08:37:06;;;;;;;;;;;18.30;77.20;;;;;;5071966;28;20368;-78
2021/06/07 08:39:31;;;;;;;;;;;18.40;77.40;;;;;;5071861;28;19913;-77
2021/06/07 08:41:57;;;;;;;;;;;18.50;77.40;;;;;;5072091;28;19912;-77
2021/06/07 08:44:27;;;;;;;;;;;18.60;78.00;;;;;;5055438;28;19917;-78
2021/06/07 08:46:52;;;;;;;;;;;18.60;77.60;;;;;;5073800;28;19919;-79
2021/06/07 08:49:18;;;;;;;;;;;18.70;73.20;;;;;;5075090;28;19908;-79
2021/06/07 08:51:43;;;;;;;;;;;18.80;74.20;;;;;;5074996;28;20392;-79
2021/06/07 08:54:09;;;;;;;;;;;18.90;72.20;;;;;;5072815;28;20280;-78
2021/06/07 08:56:34;;;;;;;;;;;19.00;72.10;;;;;;5076099;28;19916;-79
2021/06/07 08:59:00;;;;;;;;;;;19.10;72.90;;;;;;5071463;28;19962;-79
2021/06/07 09:01:25;;;;;;;;;;;19.10;73.30;;;;;;5054707;28;19909;-78
2021/06/07 09:03:51;;;;;;;;;;;19.20;73.50;;;;;;5056118;28;20023;-79
2021/06/07 09:06:23;;;;;;;;;;;19.30;73.20;;;;;;5071485;28;19913;-78
2021/06/07 09:08:49;;;;;;;;;;;19.40;73.00;;;;;;5056099;28;19920;-78
2021/06/07 09:11:16;;;;;;;;;;;19.50;71.30;;;;;;5053825;28;19908;-79
2021/06/07 09:13:43;;;;;;;;;;;19.60;73.70;;;;;;5055660;28;19945;-77
2021/06/07 09:16:09;;;;;;;;;;;19.60;74.20;;;;;;5059818;28;20383;-78
2021/06/07 09:18:39;;;;;;;;;;;19.70;74.70;;;;;;5074551;28;19909;-77
2021/06/07 09:21:13;;;;;;;;;;;19.80;75.30;;;;;;5072534;28;19958;-77
2021/06/07 09:23:49;;;;;;;;;;;19.90;74.10;;;;;;5065744;28;20391;-77
2021/06/07 09:26:26;;;;;;;;;;;20.00;73.90;;;;;;5084060;28;19912;-77
2021/06/07 09:28:56;;;;;;;;;;;19.90;73.20;;;;;;5075507;28;19912;-78
2021/06/07 09:31:26;;;;;;;;;;;20.00;70.30;;;;;;5074321;28;20277;-77
2021/06/07 09:33:52;;;;;;;;;;;20.10;71.00;;;;;;5074285;28;20304;-78
2021/06/07 09:36:25;;;;;;;;;;;20.20;69.60;;;;;;5075280;28;19912;-77
2021/06/07 09:38:54;;;;;;;;;;;20.20;70.50;;;;;;5091070;28;20368;-78
2021/06/07 09:41:19;;;;;;;;;;;20.30;70.90;;;;;;5091036;28;19909;-77
2021/06/07 09:43:46;;;;;;;;;;;20.40;70.00;;;;;;5073365;28;20007;-77
2021/06/07 09:46:11;;;;;;;;;;;20.50;70.20;;;;;;5055639;28;20432;-77
2021/06/07 09:48:37;;;;;;;;;;;20.70;70.90;;;;;;5055127;28;19963;-77
2021/06/07 09:51:02;;;;;;;;;;;20.80;68.30;;;;;;5070597;28;20353;-78
2021/06/07 09:53:55;;;;;;;;;;;21.10;65.80;;;;;;5055160;28;19966;-77
2021/06/07 09:56:21;;;;;;;;;;;21.20;64.10;;;;;;5055147;28;19909;-77
2021/06/07 09:58:47;;;;;;;;;;;21.40;64.10;;;;;;5078095;28;20448;-78
2021/06/07 10:01:17;;;;;;;;;;;21.60;63.60;;;;;;5088842;28;20295;-78
2021/06/07 10:03:44;;;;;;;;;;;21.80;64.40;;;;;;5065431;28;19978;-78
2021/06/07 10:06:20;;;;;;;;;;;22.20;61.70;;;;;;5065459;28;19909;-78
2021/06/07 10:08:49;;;;;;;;;;;23.50;61.60;;;;;;5065264;28;19944;-78
2021/06/07 10:11:17;;;;;;;;;;;26.40;59.30;;;;;;5079240;28;19909;-78
2021/06/07 10:13:42;;;;;;;;;;;29.00;51.10;;;;;;5087286;28;20030;-80
2021/06/07 10:16:11;;;;;;;;;;;31.00;45.00;;;;;;5090325;28;19928;-80
2021/06/07 10:18:36;;;;;;;;;;;32.50;43.50;;;;;;5074792;28;19909;-81
2021/06/07 10:21:04;;;;;;;;;;;33.50;41.80;;;;;;5072322;28;19924;-80
2021/06/07 10:23:31;;;;;;;;;;;34.50;41.50;;;;;;5079643;28;19917;-81
2021/06/07 10:25:57;;;;;;;;;;;35.80;37.10;;;;;;5074394;28;19909;-80
2021/06/07 10:28:24;;;;;;;;;;;36.70;35.10;;;;;;5090022;28;19924;-81
2021/06/07 10:30:49;;;;;;;;;;;37.50;32.80;;;;;;5089833;28;19958;-80
2021/06/07 10:33:25;;;;;;;;;;;38.20;33.90;;;;;;5090052;28;19912;-81
2021/06/07 10:35:51;;;;;;;;;;;38.60;31.70;;;;;;5074325;28;19916;-81
2021/06/07 10:38:27;;;;;;;;;;;39.20;31.90;;;;;;5089595;28;20284;-80
2021/06/07 10:40:53;;;;;;;;;;;39.60;30.40;;;;;;5074020;28;19920;-80
2021/06/07 10:43:18;;;;;;;;;;;40.30;32.00;;;;;;5072022;28;19938;-81
2021/06/07 10:45:44;;;;;;;;;;;40.70;29.40;;;;;;5065204;28;19909;-81
2021/06/07 10:48:10;;;;;;;;;;;41.00;29.40;;;;;;5062530;28;20019;-82
2021/06/07 10:50:40;;;;;;;;;;;41.10;28.70;;;;;;5063927;28;19940;-81
2021/06/07 10:53:06;;;;;;;;;;;41.00;28.60;;;;;;5067574;28;19913;-82
2021/06/07 10:55:39;;;;;;;;;;;41.00;28.90;;;;;;5070745;28;19990;-82
2021/06/07 10:58:05;;;;;;;;;;;40.80;28.40;;;;;;5071024;28;19971;-81
2021/06/07 11:00:39;;;;;;;;;;;40.60;28.80;;;;;;5072774;28;19955;-81
2021/06/07 11:03:14;;;;;;;;;;;40.80;28.90;;;;;;5088338;28;19962;-82
2021/06/07 11:05:39;;;;;;;;;;;41.20;29.30;;;;;;5086051;28;19915;-82
2021/06/07 11:08:05;;;;;;;;;;;41.60;28.50;;;;;;5088205;28;20402;-81
2021/06/07 11:10:31;;;;;;;;;;;41.60;27.30;;;;;;5072345;28;19965;-80
2021/06/07 11:13:17;;;;;;;;;;;41.50;27.80;;;;;;5087993;28;19916;-81
2021/06/07 11:15:51;;;;;;;;;;;41.60;28.30;;;;;;5063900;28;19928;-81
2021/06/07 11:18:26;;;;;;;;;;;42.00;27.60;;;;;;5064188;28;19913;-81
2021/06/07 11:20:54;;;;;;;;;;;42.10;28.00;;;;;;5077676;28;19955;-82
2021/06/07 11:23:21;;;;;;;;;;;42.40;27.50;;;;;;5065628;28;19924;-81
2021/06/07 11:25:50;;;;;;;;;;;42.60;27.60;;;;;;5084407;28;19921;-81
2021/06/07 11:28:33;;;;;;;;;;;42.70;28.10;;;;;;5078219;28;20053;-82
2021/06/07 11:31:00;;;;;;;;;;;43.10;28.10;;;;;;5077747;28;19912;-81
2021/06/07 11:33:25;;;;;;;;;;;43.40;27.30;;;;;;5061797;28;20356;-82
2021/06/07 11:35:51;;;;;;;;;;;43.60;27.80;;;;;;5063810;28;20046;-81
2021/06/07 11:38:35;;;;;;;;;;;43.70;26.80;;;;;;5062469;28;20387;-82
2021/06/07 11:41:03;;;;;;;;;;;43.50;26.60;;;;;;5064580;28;19909;-81
2021/06/07 11:43:46;;;;;;;;;;;43.30;27.20;;;;;;5077134;28;19913;-81
2021/06/07 11:46:31;;;;;;;;;;;43.00;27.60;;;;;;5062457;28;23095;-82
2021/06/07 11:49:07;;;;;;;;;;;42.40;27.00;;;;;;5077908;28;20361;-81
2021/06/07 11:51:33;;;;;;;;;;;43.10;26.80;;;;;;5077107;28;20196;-81
2021/06/07 11:53:58;;;;;;;;;;;43.60;27.50;;;;;;5062831;28;19909;-82
2021/06/07 11:56:24;;;;;;;;;;;44.10;26.80;;;;;;5079136;28;19909;-82
2021/06/07 11:58:50;;;;;;;;;;;44.20;26.10;;;;;;5061638;28;20380;-82
2021/06/07 12:01:15;;;;;;;;;;;43.90;26.30;;;;;;5078815;28;20271;-81
2021/06/07 12:03:44;;;;;;;;;;;43.20;26.10;;;;;;5062580;28;19964;-81
2021/06/07 12:06:09;;;;;;;;;;;42.60;26.70;;;;;;5088407;28;19909;-83
2021/06/07 12:08:35;;;;;;;;;;;41.90;27.80;;;;;;5071862;28;19915;-83
2021/06/07 12:11:02;;;;;;;;;;;41.90;27.40;;;;;;5073122;28;19916;-82
2021/06/07 12:13:34;;;;;;;;;;;41.70;27.20;;;;;;5072940;28;19908;-82
2021/06/07 12:16:02;;;;;;;;;;;41.90;27.40;;;;;;5069515;28;19921;-82
2021/06/07 12:18:33;;;;;;;;;;;41.80;27.50;;;;;;5051646;28;19920;-83
2021/06/07 12:21:03;;;;;;;;;;;41.70;27.70;;;;;;5051656;28;19916;-82
2021/06/07 12:23:31;;;;;;;;;;;40.60;28.00;;;;;;5052800;28;19913;-83
2021/06/07 12:28:38;;;;;;;;;;;41.00;28.30;;;;;;5053189;28;20250;-82
2021/06/07 12:31:03;;;;;;;;;;;41.50;28.10;;;;;;5051540;28;19909;-81
2021/06/07 12:33:31;;;;;;;;;;;41.80;27.30;;;;;;5051291;28;19920;-82
2021/06/07 12:35:56;;;;;;;;;;;41.60;27.70;;;;;;5051515;28;19989;-82
2021/06/07 12:38:22;;;;;;;;;;;40.80;28.30;;;;;;5058123;28;19952;-83
2021/06/07 12:40:48;;;;;;;;;;;41.20;28.40;;;;;;5071553;28;19982;-83
2021/06/07 12:43:16;;;;;;;;;;;41.40;28.30;;;;;;5071407;28;19912;-83
2021/06/07 12:45:46;;;;;;;;;;;41.50;28.20;;;;;;5071598;28;19909;-83
2021/06/07 12:48:25;;;;;;;;;;;41.70;28.40;;;;;;5076259;28;19954;-82
2021/06/07 12:50:54;;;;;;;;;;;41.70;27.70;;;;;;5076328;28;19908;-82
2021/06/07 12:53:21;;;;;;;;;;;41.40;27.20;;;;;;5076305;28;19908;-82
2021/06/07 12:55:47;;;;;;;;;;;41.20;27.60;;;;;;5075004;28;19916;-82
2021/06/07 12:58:14;;;;;;;;;;;41.10;27.20;;;;;;5074785;28;19912;-82
2021/06/07 13:00:40;;;;;;;;;;;40.80;27.70;;;;;;5074895;28;19966;-83
2021/06/07 13:03:23;;;;;;;;;;;40.60;28.20;;;;;;5074583;28;19916;-82
2021/06/07 13:06:07;;;;;;;;;;;40.90;28.20;;;;;;5070856;28;19954;-82
2021/06/07 13:08:33;;;;;;;;;;;40.70;28.10;;;;;;5054839;28;19923;-83
2021/06/07 13:11:00;;;;;;;;;;;40.50;28.30;;;;;;5055973;28;19908;-82
2021/06/07 13:13:30;;;;;;;;;;;40.40;28.40;;;;;;5054619;28;19933;-82
2021/06/07 13:16:07;;;;;;;;;;;40.30;28.20;;;;;;5073639;28;19921;-82
2021/06/07 13:18:36;;;;;;;;;;;40.30;28.30;;;;;;5089277;28;19912;-82
2021/06/07 13:21:10;;;;;;;;;;;39.90;27.80;;;;;;5075508;28;19908;-82
2021/06/07 13:23:37;;;;;;;;;;;39.60;27.60;;;;;;5075170;28;19934;-82
2021/06/07 13:26:19;;;;;;;;;;;39.60;28.00;;;;;;5074304;28;19917;-81
2021/06/07 13:28:45;;;;;;;;;;;39.60;27.50;;;;;;5074398;28;19915;-81
2021/06/07 13:31:10;;;;;;;;;;;39.90;27.80;;;;;;5074406;28;19909;-81
2021/06/07 13:33:40;;;;;;;;;;;39.80;28.40;;;;;;5062374;28;19916;-82
2021/06/07 13:36:06;;;;;;;;;;;39.50;28.40;;;;;;5053980;28;19915;-81
2021/06/07 13:38:33;;;;;;;;;;;38.80;28.60;;;;;;5049708;28;19908;-81
2021/06/07 13:41:07;;;;;;;;;;;37.90;29.30;;;;;;5074168;28;19909;-81
2021/06/07 13:43:33;;;;;;;;;;;37.80;29.80;;;;;;5075187;28;20007;-81
2021/06/07 13:45:58;;;;;;;;;;;37.20;31.00;;;;;;5075258;28;20001;-80
2021/06/07 13:48:25;;;;;;;;;;;36.70;31.10;;;;;;5091073;28;19915;-81
2021/06/07 13:50:54;;;;;;;;;;;35.60;31.90;;;;;;5075072;28;19916;-81
2021/06/07 13:53:19;;;;;;;;;;;35.00;31.00;;;;;;5073908;28;19908;-80
2021/06/07 13:55:46;;;;;;;;;;;34.50;31.80;;;;;;5073868;28;20322;-81
2021/06/07 13:58:19;;;;;;;;;;;34.00;32.30;;;;;;5073564;28;20425;-80
2021/06/07 14:00:50;;;;;;;;;;;33.70;32.40;;;;;;5073954;28;19915;-81
2021/06/07 14:03:31;;;;;;;;;;;33.30;33.10;;;;;;5074850;28;19912;-81
2021/06/07 14:05:58;;;;;;;;;;;32.90;33.40;;;;;;5073312;28;19915;-80
2021/06/07 14:08:25;;;;;;;;;;;32.50;34.20;;;;;;5073060;28;19916;-81
2021/06/07 14:10:51;;;;;;;;;;;32.30;34.40;;;;;;5089880;28;20342;-81
2021/06/07 14:13:17;;;;;;;;;;;32.30;33.80;;;;;;5090143;28;19962;-81
2021/06/07 14:15:43;;;;;;;;;;;32.10;34.80;;;;;;5073551;28;19931;-81
2021/06/07 14:18:09;;;;;;;;;;;31.90;35.60;;;;;;5076013;28;19916;-80